Time;durP1;ratioP1;P1;durP2;ratioP2;P2;SDS_P1;SDS_P2;PMS_P1;PMS_P2;Temp;Humidity;BMP_temperature;BMP_pressure;BME280_temperature;BME280_humidity;BME280_pressure;Samples;Min_cycle;Max_cycle;Signal;HPM_P1;HPM_P2
2022/01/18 09:37:49;;;;;;;1.53;0.60;;;;;;;6.62;100.00;100985.63;5149799;27;20544;-85
2022/01/18 09:40:19;;;;;;;1.17;0.90;;;;;;;7.38;100.00;100987.19;5131956;27;39077;-85
2022/01/18 09:42:54;;;;;;;0.73;0.70;;;;;;;7.98;100.00;100979.16;5131584;27;41910;-85
2022/01/18 09:45:23;;;;;;;1.20;0.70;;;;;;;8.54;100.00;100998.34;5132166;27;43105;-83
2022/01/18 09:47:53;;;;;;;0.80;0.80;;;;;;;8.88;100.00;101002.03;5131371;27;41174;-85
2022/01/18 09:50:27;;;;;;;1.00;0.70;;;;;;;9.25;98.30;101011.81;5146166;27;40211;-86
2022/01/18 09:52:58;;;;;;;1.47;0.83;;;;;;;9.62;95.37;101007.41;5131852;27;41980;-85
2022/01/18 09:55:30;;;;;;;0.60;0.60;;;;;;;9.90;92.44;101014.63;5149179;27;41932;-85
2022/01/18 09:57:59;;;;;;;3.50;0.80;;;;;;;10.06;90.57;100998.31;5131966;27;40878;-85
2022/01/18 10:00:29;;;;;;;0.90;0.70;;;;;;;10.22;89.11;101019.13;5132067;27;38915;-87
2022/01/18 10:02:57;;;;;;;1.07;0.90;;;;;;;10.27;88.03;101009.28;5131767;27;40685;-85
2022/01/18 10:05:28;;;;;;;2.03;0.70;;;;;;;10.29;87.23;101008.31;5134829;27;42780;-84
2022/01/18 10:07:59;;;;;;;3.77;0.90;;;;;;;10.27;86.24;101002.19;5144978;27;41311;-86
2022/01/18 10:10:39;;;;;;;1.90;1.10;;;;;;;10.26;85.96;100996.97;5145622;27;39924;-86
2022/01/18 10:13:08;;;;;;;1.20;1.10;;;;;;;10.32;84.39;101013.53;5145203;27;40817;-86
2022/01/18 10:15:35;;;;;;;2.97;1.60;;;;;;;10.34;84.29;101009.09;5145431;27;41668;-84
2022/01/18 10:18:05;;;;;;;1.33;0.80;;;;;;;10.36;84.48;101004.63;5146295;27;44307;-83
2022/01/18 10:20:33;;;;;;;1.00;0.70;;;;;;;10.37;83.52;101008.13;5157789;27;40532;-86
2022/01/18 10:23:02;;;;;;;0.77;0.77;;;;;;;10.31;83.66;100987.97;5130409;27;41546;-83
2022/01/18 10:25:35;;;;;;;0.93;0.93;;;;;;;10.41;83.25;101002.69;5131058;27;41784;-87
2022/01/18 10:28:03;;;;;;;1.10;0.80;;;;;;;10.30;82.80;100980.06;5131356;27;42246;-87
2022/01/18 10:30:38;;;;;;;1.80;0.90;;;;;;;10.20;80.66;100960.91;5132432;27;38917;-87
2022/01/18 10:33:11;;;;;;;0.50;0.50;;;;;;;10.97;80.51;101000.22;5110811;27;41044;-86
2022/01/18 10:36:04;;;;;;;1.83;0.80;;;;;;;11.87;78.58;101000.88;5109713;27;41918;-86
2022/01/18 10:38:33;;;;;;;2.17;0.70;;;;;;;12.59;76.46;101009.88;5131101;27;42392;-83
2022/01/18 10:41:22;;;;;;;0.53;0.53;;;;;;;12.43;74.37;101008.69;5129745;27;39160;-86
2022/01/18 10:44:04;;;;;;;3.47;0.50;;;;;;;12.25;71.15;101030.56;5130551;27;42024;-85
2022/01/18 10:46:37;;;;;;;0.57;0.57;;;;;;;12.59;71.72;101031.13;5130045;27;42831;-84
2022/01/18 10:49:06;;;;;;;0.57;0.37;;;;;;;14.34;67.13;101031.28;5116914;27;42531;-87
2022/01/18 10:51:36;;;;;;;0.30;0.30;;;;;;;17.80;59.90;101060.22;5116107;27;38913;-88
2022/01/18 10:54:08;;;;;;;0.97;0.50;;;;;;;21.36;51.06;101093.66;5133898;27;40526;-86
2022/01/18 10:56:42;;;;;;;0.77;0.60;;;;;;;23.03;45.16;101102.59;5116343;27;41377;-89
2022/01/18 10:59:21;;;;;;;0.40;0.40;;;;;;;22.15;44.56;101101.31;5117555;27;40744;-89
2022/01/18 11:02:05;;;;;;;0.47;0.40;;;;;;;21.14;44.83;101059.28;5116503;27;38998;-88
2022/01/18 11:04:33;;;;;;;0.73;0.50;;;;;;;21.33;44.15;101104.66;5117931;27;41421;-88
2022/01/18 11:07:03;;;;;;;0.30;0.30;;;;;;;20.22;44.38;101053.97;5116297;27;41762;-87
2022/01/18 11:09:34;;;;;;;0.40;0.40;;;;;;;19.80;44.89;101072.97;5116842;27;41567;-86
2022/01/18 11:12:02;;;;;;;0.40;0.40;;;;;;;19.23;45.08;101078.41;5132829;27;39836;-86
2022/01/18 11:14:31;;;;;;;0.27;0.27;;;;;;;18.63;46.59;101051.72;5116752;27;40815;-87
2022/01/18 11:17:02;;;;;;;0.30;0.30;;;;;;;18.17;47.92;101033.00;5115866;27;41874;-87
2022/01/18 11:19:33;;;;;;;0.50;0.20;;;;;;;18.42;46.56;101059.19;5116560;27;42288;-87
2022/01/18 11:22:08;;;;;;;0.70;0.30;;;;;;;17.85;48.28;101042.91;5116240;27;40030;-89
2022/01/18 11:24:39;;;;;;;0.30;0.30;;;;;;;17.04;49.03;101005.56;5116422;27;41037;-88
2022/01/18 11:27:12;;;;;;;0.30;0.30;;;;;;;16.53;48.65;101026.13;5116331;27;41638;-87
2022/01/18 11:29:40;;;;;;;0.37;0.37;;;;;;;15.90;50.16;101014.25;5120112;27;41422;-85
2022/01/18 11:32:09;;;;;;;0.53;0.50;;;;;;;15.46;50.81;101020.78;5144787;27;38780;-86
2022/01/18 11:34:55;;;;;;;0.67;0.60;;;;;;;14.99;52.35;101016.81;5146512;27;40707;-87
2022/01/18 11:37:29;;;;;;;0.50;0.50;;;;;;;14.62;53.16;100999.81;5124342;27;41592;-86
2022/01/18 11:40:05;;;;;;;1.47;0.60;;;;;;;16.50;49.17;101020.91;5116348;27;41206;-90
2022/01/18 11:42:44;;;;;;;0.40;0.40;;;;;;;17.56;47.21;101038.31;5115193;27;38821;-88
2022/01/18 11:45:33;;;;;;;0.63;0.30;;;;;;;17.70;47.70;101005.41;5115914;27;41022;-85
2022/01/18 11:48:04;;;;;;;0.40;0.40;;;;;;;18.01;46.77;101024.13;5116051;27;42505;-86
2022/01/18 11:50:36;;;;;;;0.40;0.30;;;;;;;18.35;45.75;101035.53;5115543;27;42843;-86
2022/01/18 11:53:23;;;;;;;0.30;0.30;;;;;;;17.97;44.49;101033.28;5116429;27;39355;-90
2022/01/18 11:55:53;;;;;;;0.50;0.30;;;;;;;18.71;42.94;101045.88;5129994;27;41715;-86
2022/01/18 11:58:22;;;;;;;0.27;0.27;;;;;;;19.16;41.75;101059.16;5116156;27;41244;-85
2022/01/18 12:00:53;;;;;;;0.60;0.50;;;;;;;19.72;41.65;101060.91;5114052;27;42107;-85
2022/01/18 12:03:25;;;;;;;0.40;0.40;;;;;;;20.02;41.16;101052.66;5115923;27;38947;-88
2022/01/18 12:05:53;;;;;;;0.20;0.20;;;;;;;20.84;40.25;101070.38;5114838;27;40979;-84
2022/01/18 12:08:36;;;;;;;0.33;0.30;;;;;;;22.83;36.49;101087.09;5115991;27;41750;-85
2022/01/18 12:11:07;;;;;;;0.30;0.30;;;;;;;21.59;38.38;101075.81;5130450;27;42254;-89
2022/01/18 12:13:41;;;;;;;0.67;0.30;;;;;;;19.83;39.59;101068.25;5115614;27;39040;-85
2022/01/18 12:16:25;;;;;;;0.20;0.20;;;;;;;18.46;42.01;101055.38;5132197;27;41053;-82
2022/01/18 12:19:02;;;;;;;1.10;0.30;;;;;;;17.26;44.01;101030.19;5132629;27;42923;-82
2022/01/18 12:21:32;;;;;;;2.00;0.37;;;;;;;16.51;45.50;101044.06;5130638;27;43057;-82
2022/01/18 12:24:14;;;;;;;0.50;0.50;;;;;;;15.79;46.98;101022.78;5131345;27;39897;-81
2022/01/18 12:26:47;;;;;;;0.40;0.40;;;;;;;15.23;47.47;101022.81;5131759;27;40769;-82
2022/01/18 12:29:47;;;;;;;0.50;0.50;;;;;;;14.69;49.04;101009.31;5129432;27;42810;-83
2022/01/18 12:32:28;;;;;;;0.40;0.40;;;;;;;14.20;49.97;100983.03;5114775;27;41529;-84
2022/01/18 12:35:02;;;;;;;0.40;0.40;;;;;;;13.84;50.63;100973.03;5115278;27;38943;-83
2022/01/18 12:37:44;;;;;;;0.43;0.43;;;;;;;13.61;51.18;100971.31;5114838;27;40747;-85
2022/01/18 12:40:31;;;;;;;0.33;0.33;;;;;;;13.46;52.47;100976.41;5112268;27;41935;-85
2022/01/18 12:45:53;;;;;;;1.30;0.50;;;;;;;13.09;53.30;100980.50;5119991;27;39073;-82
2022/01/18 12:48:21;;;;;;;0.50;0.50;;;;;;;12.90;53.57;100969.69;5124595;27;41007;-83
2022/01/18 12:50:52;;;;;;;0.63;0.60;;;;;;;12.80;53.47;100980.75;5124360;27;42750;-84
2022/01/18 12:53:23;;;;;;;0.50;0.50;;;;;;;12.64;53.93;100968.94;5132173;27;41250;-82
2022/01/18 12:55:54;;;;;;;0.83;0.60;;;;;;;12.51;54.33;100960.53;5097865;27;38894;-86
2022/01/18 12:58:26;;;;;;;0.43;0.43;;;;;;;12.27;54.31;100943.72;5094914;27;40538;-86
2022/01/18 13:00:57;;;;;;;0.40;0.40;;;;;;;12.17;54.95;100939.66;5139836;27;42204;-87
2022/01/18 13:03:26;;;;;;;0.40;0.40;;;;;;;12.04;54.91;100938.34;5113783;27;41179;-86
2022/01/18 13:05:56;;;;;;;0.40;0.40;;;;;;;12.02;55.15;100956.13;5112241;27;38970;-84
2022/01/18 13:08:29;;;;;;;0.63;0.63;;;;;;;11.84;55.42;100934.63;5133891;27;40754;-84
2022/01/18 13:10:56;;;;;;;0.30;0.30;;;;;;;11.74;55.75;100929.66;5129995;27;41855;-84
2022/01/18 13:13:34;;;;;;;0.40;0.40;;;;;;;11.62;55.50;100922.94;5114097;27;42676;-83
2022/01/18 13:22:55;;;;;;;0.67;0.50;;;;;;;11.60;55.42;100935.44;5131413;27;38777;-85
2022/01/18 13:24:57;;;;;;;0.57;0.40;;;;;;;11.45;56.71;100922.66;5129132;27;42076;-83
2022/01/18 13:27:33;;;;;;;0.80;0.70;;;;;;;11.43;57.49;100903.25;5130178;27;39077;-83
2022/01/18 13:30:21;;;;;;;0.50;0.50;;;;;;;11.33;57.34;100904.50;5113295;27;40895;-85
2022/01/18 13:32:51;;;;;;;0.30;0.30;;;;;;;11.38;56.08;100935.25;5130565;27;41765;-84
2022/01/18 13:35:25;;;;;;;0.73;0.70;;;;;;;11.33;56.54;100931.03;5147335;27;41421;-82
2022/01/18 13:37:57;;;;;;;0.67;0.43;;;;;;;11.28;56.48;100917.91;5110824;27;38831;-84
2022/01/18 13:40:26;;;;;;;0.40;0.40;;;;;;;11.19;56.50;100920.84;5092876;28;41085;-85
2022/01/18 13:43:03;;;;;;;0.40;0.40;;;;;;;11.23;57.45;100913.69;5111897;27;41568;-87
2022/01/18 13:45:34;;;;;;;0.50;0.50;;;;;;;11.19;57.69;100906.72;5109192;27;42497;-86
2022/01/18 13:48:06;;;;;;;1.03;0.50;;;;;;;11.20;57.17;100916.41;5125092;27;38858;-86
2022/01/18 13:50:42;;;;;;;0.83;0.40;;;;;;;11.11;57.80;100899.91;5109509;28;41842;-90
2022/01/18 13:53:12;;;;;;;0.47;0.47;;;;;;;11.06;57.78;100904.47;5109066;27;43453;-86
2022/01/18 13:55:46;;;;;;;0.30;0.30;;;;;;;11.00;57.54;100901.16;5112367;27;42478;-86
2022/01/18 13:58:21;;;;;;;0.50;0.50;;;;;;;10.94;58.13;100888.94;5110827;27;39987;-87
2022/01/18 14:00:50;;;;;;;0.57;0.50;;;;;;;10.90;58.22;100889.06;5112699;27;40704;-87
2022/01/18 14:03:33;;;;;;;0.40;0.40;;;;;;;10.99;58.02;100910.03;5123751;27;42072;-84
2022/01/18 14:06:02;;;;;;;0.83;0.40;;;;;;;10.91;58.33;100907.59;5130342;27;41146;-87
2022/01/18 14:08:34;;;;;;;0.40;0.40;;;;;;;10.85;58.31;100906.94;5146258;27;40065;-86
2022/01/18 14:11:04;;;;;;;0.40;0.40;;;;;;;10.72;58.91;100890.53;5125172;27;41473;-84
2022/01/18 14:13:36;;;;;;;0.40;0.40;;;;;;;10.73;58.89;100901.09;5112222;27;42930;-81
2022/01/18 14:16:23;;;;;;;0.33;0.33;;;;;;;10.50;58.17;100892.97;5129500;27;41151;-81
2022/01/18 14:18:52;;;;;;;0.40;0.40;;;;;;;10.52;58.80;100919.38;5128722;27;40059;-85
2022/01/18 14:21:27;;;;;;;0.57;0.30;;;;;;;10.30;59.09;100898.84;5107117;28;41070;-86
2022/01/18 14:24:13;;;;;;;0.50;0.50;;;;;;;10.18;59.64;100891.25;5093408;28;41732;-86
2022/01/18 14:26:56;;;;;;;0.30;0.30;;;;;;;10.27;60.22;100908.63;5104514;27;42175;-83
2022/01/18 14:29:27;;;;;;;0.33;0.33;;;;;;;10.24;61.09;100903.44;5115609;27;38734;-83
2022/01/18 14:32:01;;;;;;;0.30;0.30;;;;;;;10.05;60.59;100887.16;5114581;27;40771;-87
2022/01/18 14:34:31;;;;;;;0.33;0.33;;;;;;;10.02;61.26;100892.53;5115198;27;42983;-83
2022/01/18 14:37:00;;;;;;;0.40;0.40;;;;;;;10.00;61.19;100900.53;5135418;27;42650;-87
2022/01/18 14:39:28;;;;;;;0.70;0.40;;;;;;;9.73;61.14;100857.16;5136664;27;39431;-84
2022/01/18 14:42:04;;;;;;;0.40;0.40;;;;;;;9.90;61.24;100911.41;5117878;27;41733;-82
2022/01/18 14:45:00;;;;;;;0.50;0.40;;;;;;;9.85;61.56;100900.09;5099604;27;41794;-82
2022/01/18 14:47:29;;;;;;;0.43;0.43;;;;;;;9.69;61.63;100884.63;5114362;27;41471;-83
2022/01/18 14:49:58;;;;;;;0.30;0.30;;;;;;;9.67;61.80;100891.72;5131678;27;38982;-81
2022/01/18 14:52:28;;;;;;;0.30;0.30;;;;;;;9.56;61.62;100877.03;5126984;27;41550;-85
2022/01/18 14:54:56;;;;;;;0.20;0.20;;;;;;;9.60;62.20;100894.56;5113465;27;42785;-85
2022/01/18 14:57:24;;;;;;;0.57;0.33;;;;;;;9.54;62.29;100890.28;5132058;27;41148;-84
2022/01/18 14:59:52;;;;;;;0.40;0.40;;;;;;;9.38;62.83;100878.41;5114449;27;40120;-85
2022/01/18 15:02:20;;;;;;;0.30;0.30;;;;;;;9.33;62.81;100881.13;5114371;27;40580;-82
2022/01/18 15:04:49;;;;;;;0.40;0.40;;;;;;;9.26;63.21;100882.22;5132328;27;41606;-84
2022/01/18 15:07:18;;;;;;;0.40;0.40;;;;;;;9.22;63.66;100877.03;5114851;27;41068;-87
2022/01/18 15:09:45;;;;;;;0.60;0.60;;;;;;;9.02;63.73;100865.16;5115025;27;39688;-87
2022/01/18 15:12:13;;;;;;;0.90;0.80;;;;;;;9.14;63.59;100889.56;5131725;27;42093;-86
2022/01/18 15:14:41;;;;;;;2.60;0.83;;;;;;;9.11;63.91;100894.94;5132545;27;42116;-84
2022/01/18 15:17:10;;;;;;;2.17;1.33;;;;;;;9.06;63.84;100896.78;5131017;27;42086;-86
2022/01/18 15:19:38;;;;;;;2.13;0.90;;;;;;;9.04;64.09;100894.19;5115093;27;39329;-84
2022/01/18 15:22:08;;;;;;;2.00;0.93;;;;;;;9.11;64.05;100906.38;5130954;27;41954;-84
2022/01/18 15:24:38;;;;;;;1.17;0.60;;;;;;;8.99;64.33;100896.97;5114346;27;43035;-83
2022/01/18 15:27:06;;;;;;;0.80;0.60;;;;;;;9.02;64.38;100900.44;5113889;27;41577;-85
2022/01/18 15:29:34;;;;;;;0.40;0.40;;;;;;;8.91;64.31;100893.59;5131666;27;39949;-85
2022/01/18 15:32:03;;;;;;;1.17;0.30;;;;;;;8.88;64.36;100898.13;5112869;27;41508;-86
2022/01/18 15:34:31;;;;;;;0.67;0.30;;;;;;;8.83;64.65;100902.63;5114431;27;42717;-83
2022/01/18 15:36:59;;;;;;;0.27;0.27;;;;;;;8.85;64.67;100909.63;5113974;27;41953;-82
2022/01/18 15:39:28;;;;;;;0.37;0.37;;;;;;;8.75;64.64;100896.66;5114760;27;39177;-83
2022/01/18 15:41:56;;;;;;;0.33;0.33;;;;;;;8.72;64.99;100908.16;5130802;27;41963;-84
2022/01/18 15:44:24;;;;;;;0.20;0.20;;;;;;;8.73;64.86;100914.31;5131881;27;41394;-84
2022/01/18 15:46:51;;;;;;;0.30;0.30;;;;;;;8.71;64.79;100901.13;5130692;27;42033;-84
2022/01/18 15:49:20;;;;;;;1.53;0.33;;;;;;;8.70;64.84;100904.66;5130408;27;39223;-84
2022/01/18 15:51:49;;;;;;;0.47;0.40;;;;;;;8.69;64.94;100908.22;5113949;27;40802;-84
2022/01/18 15:54:19;;;;;;;0.60;0.60;;;;;;;8.55;65.22;100891.78;5114679;27;43237;-85
2022/01/18 15:56:48;;;;;;;1.27;0.70;;;;;;;8.40;65.42;100865.75;5113361;27;41766;-84
2022/01/18 15:59:18;;;;;;;0.73;0.60;;;;;;;8.42;65.43;100872.69;5114706;27;39017;-84
2022/01/18 16:01:45;;;;;;;0.60;0.60;;;;;;;8.55;65.19;100902.34;5113706;27;41038;-87
2022/01/18 16:04:13;;;;;;;0.57;0.57;;;;;;;8.54;65.31;100908.53;5114258;27;41992;-84
2022/01/18 16:06:41;;;;;;;0.77;0.77;;;;;;;8.51;65.30;100908.63;5113735;27;42624;-85
2022/01/18 16:09:09;;;;;;;0.50;0.50;;;;;;;8.48;65.30;100913.97;5114827;27;39017;-85
2022/01/18 16:11:37;;;;;;;1.47;0.70;;;;;;;8.23;64.81;100880.13;5096989;27;42989;-85
2022/01/18 16:14:07;;;;;;;0.40;0.40;;;;;;;8.29;65.20;100901.09;5114965;27;41484;-85
2022/01/18 16:16:37;;;;;;;0.70;0.63;;;;;;;8.34;65.45;100910.75;5131357;27;43184;-83
2022/01/18 16:19:05;;;;;;;0.50;0.50;;;;;;;8.22;65.25;100885.44;5114805;27;38571;-82
2022/01/18 16:21:33;;;;;;;0.33;0.33;;;;;;;8.25;65.47;100901.22;5132356;27;41503;-83
2022/01/18 16:24:01;;;;;;;0.87;0.47;;;;;;;8.21;65.33;100888.97;5113916;27;43051;-82
2022/01/18 16:26:28;;;;;;;0.80;0.50;;;;;;;8.18;65.66;100899.59;5113866;27;42263;-84
2022/01/18 16:28:56;;;;;;;0.33;0.30;;;;;;;8.19;65.75;100901.31;5115133;27;38539;-85
2022/01/18 16:31:27;;;;;;;0.60;0.60;;;;;;;8.19;65.58;100903.97;5113846;27;41745;-84
2022/01/18 16:33:54;;;;;;;0.57;0.50;;;;;;;8.18;65.50;100905.72;5115060;27;41896;-83
2022/01/18 16:36:22;;;;;;;0.60;0.60;;;;;;;8.18;65.67;100911.00;5113399;27;41322;-85
2022/01/18 16:38:50;;;;;;;0.70;0.50;;;;;;;8.12;65.71;100905.00;5115177;27;40018;-86
2022/01/18 16:41:19;;;;;;;0.50;0.50;;;;;;;8.24;65.70;100920.59;5113687;27;40362;-86
2022/01/18 16:43:47;;;;;;;0.60;0.60;;;;;;;8.18;66.03;100921.56;5114732;27;42878;-86
2022/01/18 16:46:15;;;;;;;0.63;0.40;;;;;;;7.93;65.87;100884.22;5113796;27;41170;-85
2022/01/18 16:48:44;;;;;;;0.90;0.80;;;;;;;8.16;65.72;100918.09;5132629;27;40086;-86
2022/01/18 16:51:12;;;;;;;2.07;0.90;;;;;;;8.04;65.86;100904.25;5113797;27;40928;-85
2022/01/18 16:53:40;;;;;;;1.07;1.00;;;;;;;8.02;65.85;100900.81;5115333;27;41921;-86
2022/01/18 16:56:08;;;;;;;1.20;0.93;;;;;;;8.14;65.89;100922.53;5113583;27;41847;-85
2022/01/18 16:58:39;;;;;;;1.10;0.70;;;;;;;8.03;65.94;100903.41;5113210;27;39324;-86
2022/01/18 17:01:08;;;;;;;1.00;0.90;;;;;;;8.07;65.96;100918.28;5112401;27;42143;-86
2022/01/18 17:03:35;;;;;;;1.67;1.00;;;;;;;8.08;66.40;100920.00;5115036;27;41728;-84
2022/01/18 17:06:05;;;;;;;0.83;0.83;;;;;;;8.07;66.26;100928.81;5113338;27;41762;-84
2022/01/18 17:08:33;;;;;;;0.70;0.70;;;;;;;7.95;66.28;100902.66;5132100;27;39221;-84
2022/01/18 17:11:01;;;;;;;0.70;0.70;;;;;;;8.02;66.52;100920.16;5110725;27;40758;-85
2022/01/18 17:13:28;;;;;;;1.00;0.90;;;;;;;7.90;66.55;100900.16;5114811;27;43868;-84
2022/01/18 17:15:58;;;;;;;1.03;1.00;;;;;;;7.82;66.34;100887.97;5112049;27;40936;-85
2022/01/18 17:18:25;;;;;;;2.17;1.00;;;;;;;7.92;66.31;100897.44;5113580;27;39002;-84
2022/01/18 17:20:53;;;;;;;1.80;1.00;;;;;;;7.92;66.49;100908.00;5130885;27;41837;-85
2022/01/18 17:23:23;;;;;;;1.10;1.00;;;;;;;8.01;66.79;100921.03;5114134;27;41763;-85
2022/01/18 17:25:51;;;;;;;1.33;0.70;;;;;;;7.91;66.79;100916.84;5111220;27;41184;-85
2022/01/18 17:28:18;;;;;;;1.43;0.90;;;;;;;7.88;66.60;100927.44;5114325;27;39235;-85
2022/01/18 17:30:47;;;;;;;0.87;0.70;;;;;;;7.85;66.84;100916.94;5113458;27;40625;-85
2022/01/18 17:33:15;;;;;;;0.77;0.60;;;;;;;7.68;66.88;100882.06;5130977;27;41967;-86
2022/01/18 17:35:45;;;;;;;1.43;0.90;;;;;;;7.88;66.80;100914.25;5112274;27;42227;-85
2022/01/18 17:38:13;;;;;;;0.73;0.73;;;;;;;7.92;67.05;100921.19;5111329;27;38934;-85
2022/01/18 17:40:44;;;;;;;1.27;0.80;;;;;;;7.91;66.95;100927.41;5120510;27;41228;-85
2022/01/18 17:43:12;;;;;;;1.30;0.83;;;;;;;7.80;67.21;100895.91;5112799;27;41933;-85
2022/01/18 17:45:40;;;;;;;3.27;0.90;;;;;;;7.62;67.52;100887.47;5116775;27;41010;-86
2022/01/18 17:48:08;;;;;;;1.10;1.00;;;;;;;7.76;67.65;100911.84;5117220;27;39016;-85
2022/01/18 17:50:39;;;;;;;0.87;0.80;;;;;;;7.84;67.62;100928.38;5117368;27;40632;-86
2022/01/18 17:53:09;;;;;;;1.40;0.90;;;;;;;7.62;67.68;100887.47;5123958;27;42855;-85
2022/01/18 17:55:38;;;;;;;1.47;1.20;;;;;;;7.38;67.68;100852.75;5112902;27;42287;-85
2022/01/18 17:58:08;;;;;;;2.20;1.40;;;;;;;7.69;67.91;100897.00;5114966;27;39450;-84
2022/01/18 18:00:36;;;;;;;2.53;1.77;;;;;;;7.50;68.15;100872.75;5116244;27;40337;-84
2022/01/18 18:03:04;;;;;;;2.50;1.77;;;;;;;7.53;68.17;100878.84;5116070;27;41760;-85
2022/01/18 18:05:33;;;;;;;1.67;1.50;;;;;;;7.55;68.35;100871.75;5111462;27;41119;-85
2022/01/18 18:08:00;;;;;;;2.33;1.40;;;;;;;7.74;68.28;100892.53;5115934;27;39062;-85
2022/01/18 18:10:28;;;;;;;2.27;1.43;;;;;;;7.63;68.34;100879.53;5136825;27;41389;-85
2022/01/18 18:12:56;;;;;;;3.17;1.90;;;;;;;7.72;68.15;100878.50;5128564;27;42563;-85
2022/01/18 18:15:25;;;;;;;1.50;1.40;;;;;;;7.56;68.25;100849.75;5115205;27;42770;-85
2022/01/18 18:17:55;;;;;;;1.87;1.50;;;;;;;7.57;68.49;100848.88;5121281;27;39797;-84
2022/01/18 18:20:27;;;;;;;1.67;1.50;;;;;;;7.62;68.40;100850.56;5135744;27;40675;-85
2022/01/18 18:22:55;;;;;;;1.30;1.10;;;;;;;7.69;68.32;100868.88;5125712;27;41763;-84
2022/01/18 18:25:24;;;;;;;1.73;1.47;;;;;;;7.61;68.46;100857.59;5130186;27;42096;-85
2022/01/18 18:27:53;;;;;;;1.63;1.53;;;;;;;7.68;68.85;100863.63;5137174;27;39779;-85
2022/01/18 18:30:24;;;;;;;1.47;1.30;;;;;;;7.63;68.84;100873.41;5123462;27;40648;-85
2022/01/18 18:32:54;;;;;;;2.37;1.37;;;;;;;7.55;68.59;100861.22;5118933;27;41928;-85
2022/01/18 18:35:23;;;;;;;1.10;0.83;;;;;;;7.63;68.33;100870.75;5130737;27;41491;-85
2022/01/18 18:37:54;;;;;;;1.73;1.30;;;;;;;7.51;68.22;100853.41;5109728;27;38351;-86
2022/01/18 18:40:31;;;;;;;1.33;1.00;;;;;;;7.52;68.36;100855.16;5111941;28;41204;-85
2022/01/18 18:43:01;;;;;;;1.70;1.10;;;;;;;7.34;68.09;100816.78;5094004;28;41364;-85
2022/01/18 18:45:32;;;;;;;1.20;1.10;;;;;;;7.56;68.22;100847.13;5129298;27;41043;-85
2022/01/18 18:48:03;;;;;;;2.13;1.00;;;;;;;7.62;68.17;100855.84;5116559;27;39049;-84
2022/01/18 18:50:31;;;;;;;1.53;1.20;;;;;;;7.56;68.30;100847.13;5139492;27;40975;-85
2022/01/18 18:53:00;;;;;;;1.60;1.27;;;;;;;7.58;68.18;100841.84;5139285;27;42132;-86
2022/01/18 18:55:28;;;;;;;1.03;0.90;;;;;;;7.56;67.73;100841.84;5129060;27;42103;-84
2022/01/18 18:58:05;;;;;;;1.00;0.90;;;;;;;7.55;67.70;100839.25;5121614;27;39031;-85
2022/01/18 19:00:49;;;;;;;1.30;1.20;;;;;;;7.49;67.68;100840.25;5150773;27;41956;-85
2022/01/18 19:03:25;;;;;;;1.10;0.80;;;;;;;7.42;67.81;100822.78;5118114;27;42770;-85
2022/01/18 19:05:55;;;;;;;1.20;1.07;;;;;;;7.11;67.76;100774.16;5121897;27;41467;-86
2022/01/18 19:08:24;;;;;;;1.20;1.10;;;;;;;7.51;68.02;100858.69;5120068;27;39858;-86
2022/01/18 19:10:59;;;;;;;0.63;0.63;;;;;;;7.46;68.05;100860.50;5118355;27;40725;-85
2022/01/18 19:13:31;;;;;;;0.73;0.73;;;;;;;7.32;67.91;100831.75;5115581;27;43189;-85
